Time;durP1;ratioP1;P1;durP2;ratioP2;P2;SDS_P1;SDS_P2;PMS_P1;PMS_P2;Temp;Humidity;BMP_temperature;BMP_pressure;BME280_temperature;BME280_humidity;BME280_pressure;Samples;Min_cycle;Max_cycle;Signal;HPM_P1;HPM_P2
2023/07/30 00:01:30;;;;;;;7.95;2.72;;;;;;;17.17;89.01;100888.03;5019006;28;20037;-74
2023/07/30 00:03:55;;;;;;;17.23;2.45;;;;;;;17.17;89.17;100893.31;5021391;28;20057;-74
2023/07/30 00:06:21;;;;;;;9.07;2.53;;;;;;;17.17;89.48;100890.66;5020295;28;20025;-74
2023/07/30 00:09:41;;;;;;;6.45;2.30;;;;;;;17.15;89.46;100889.91;5089459;27;1386355;-73
2023/07/30 00:12:08;;;;;;;9.20;2.10;;;;;;;17.16;89.48;100893.41;5116733;28;20028;-73
2023/07/30 00:14:33;;;;;;;6.90;2.53;;;;;;;17.16;89.59;100896.06;5116196;28;20035;-73
2023/07/30 00:16:58;;;;;;;6.68;2.22;;;;;;;17.15;89.65;100889.06;5116771;28;20222;-73
2023/07/30 00:19:24;;;;;;;7.57;2.45;;;;;;;17.14;89.71;100885.56;5115921;28;20338;-73
2023/07/30 00:21:49;;;;;;;5.38;1.85;;;;;;;17.14;89.81;100888.22;5116422;28;20104;-73
2023/07/30 00:24:15;;;;;;;12.32;2.85;;;;;;;17.14;89.72;100895.31;5116348;28;20045;-73
2023/07/30 00:26:40;;;;;;;15.00;2.83;;;;;;;17.14;89.96;100895.31;5115885;28;20077;-73
2023/07/30 00:29:06;;;;;;;8.85;2.70;;;;;;;17.13;90.10;100890.97;5116586;28;20358;-73
2023/07/30 00:31:31;;;;;;;11.43;2.72;;;;;;;17.13;90.04;100901.53;5115521;28;20442;-73
2023/07/30 00:33:56;;;;;;;10.10;2.63;;;;;;;17.13;90.30;100898.91;5095454;28;20055;-73
2023/07/30 00:36:22;;;;;;;12.52;2.85;;;;;;;17.12;90.38;100898.06;5095167;28;20036;-73
2023/07/30 00:38:47;;;;;;;11.60;2.63;;;;;;;17.12;90.60;100902.47;5095704;28;20639;-73
2023/07/30 00:41:13;;;;;;;11.35;2.80;;;;;;;17.13;90.52;100906.84;5113066;28;20036;-73
2023/07/30 00:43:38;;;;;;;5.80;1.88;;;;;;;17.12;90.71;100908.66;5115442;28;20272;-73
2023/07/30 00:46:04;;;;;;;10.85;2.45;;;;;;;17.12;90.80;100908.66;5097027;28;20016;-73
2023/07/30 00:48:30;;;;;;;7.25;2.35;;;;;;;17.12;90.76;100913.06;5114800;28;20334;-73
2023/07/30 00:50:56;;;;;;;9.75;2.30;;;;;;;17.12;90.79;100913.06;5115240;28;20039;-73
2023/07/30 00:53:23;;;;;;;18.92;3.67;;;;;;;17.12;91.47;100921.00;5114588;28;20036;-73
2023/07/30 00:55:49;;;;;;;12.30;2.25;;;;;;;17.13;91.80;100923.56;5115674;28;20095;-73
2023/07/30 00:58:15;;;;;;;16.20;4.03;;;;;;;17.14;91.79;100921.78;5115334;28;20081;-73
2023/07/30 01:06:33;;;;;;;12.60;3.38;;;;;;;17.13;92.51;100912.97;5051065;28;20072;-77
2023/07/30 01:08:59;;;;;;;14.90;3.00;;;;;;;17.15;92.65;100926.09;5051779;28;20104;-77
2023/07/30 01:11:24;;;;;;;18.90;3.67;;;;;;;17.14;92.45;100921.78;5050543;28;20033;-77
2023/07/30 01:13:50;;;;;;;12.43;2.63;;;;;;;17.15;92.72;100918.16;5051631;28;20060;-77
2023/07/30 01:16:15;;;;;;;22.48;4.05;;;;;;;17.15;92.69;100918.16;5033320;28;20247;-77
2023/07/30 01:18:40;;;;;;;17.23;4.18;;;;;;;17.17;92.88;100924.19;5051463;28;20028;-77
2023/07/30 01:21:06;;;;;;;13.85;3.10;;;;;;;17.17;93.09;100924.19;5038185;28;20109;-76
2023/07/30 01:23:31;;;;;;;13.80;3.00;;;;;;;17.18;92.78;100923.25;5019570;28;20053;-76
2023/07/30 01:26:08;;;;;;;14.65;3.00;;;;;;;17.18;92.81;100924.09;5020212;28;20106;-77
2023/07/30 01:28:38;;;;;;;11.20;2.35;;;;;;;17.19;92.77;100922.28;5037465;28;20338;-77
2023/07/30 01:31:05;;;;;;;14.52;3.08;;;;;;;17.19;92.81;100914.34;5037969;28;20147;-77
2023/07/30 01:33:31;;;;;;;8.45;3.53;;;;;;;17.19;92.87;100914.34;5038387;28;20025;-76
2023/07/30 01:35:58;;;;;;;16.45;3.65;;;;;;;17.19;92.75;100917.88;5037895;28;20037;-76
2023/07/30 01:38:25;;;;;;;12.30;2.70;;;;;;;17.20;93.09;100922.19;5037481;28;20228;-76
2023/07/30 01:40:51;;;;;;;13.13;2.78;;;;;;;17.19;93.13;100920.50;5025370;28;20018;-76
2023/07/30 01:43:16;;;;;;;22.23;4.15;;;;;;;17.20;93.03;100932.78;5037261;28;20045;-76
2023/07/30 01:45:42;;;;;;;19.80;3.80;;;;;;;17.20;93.10;100924.00;5037479;28;20064;-76
2023/07/30 01:48:08;;;;;;;13.23;2.92;;;;;;;17.21;93.38;100921.25;5037816;28;20041;-76
2023/07/30 01:50:33;;;;;;;15.50;2.88;;;;;;;17.21;93.30;100923.06;5037030;28;20029;-76
2023/07/30 01:52:58;;;;;;;13.32;3.40;;;;;;;17.20;93.46;100932.78;5037346;28;20228;-76
2023/07/30 01:55:24;;;;;;;12.80;2.90;;;;;;;17.20;93.67;100930.13;5036362;28;20041;-77
2023/07/30 01:57:49;;;;;;;12.57;2.70;;;;;;;17.21;93.70;100934.50;5037410;28;20021;-77
2023/07/30 02:00:15;;;;;;;18.65;3.47;;;;;;;17.21;93.67;100936.31;5037239;28;20048;-77
2023/07/30 02:02:40;;;;;;;14.80;2.85;;;;;;;17.21;93.90;100934.50;5037026;28;20049;-76
2023/07/30 02:05:05;;;;;;;14.18;3.15;;;;;;;17.21;93.77;100936.31;5025735;28;20340;-76
2023/07/30 02:07:31;;;;;;;12.10;2.45;;;;;;;17.21;93.47;100939.78;5016158;28;20045;-76
2023/07/30 02:09:56;;;;;;;13.20;3.28;;;;;;;17.22;93.75;100935.31;5016888;28;20041;-77
2023/07/30 02:12:22;;;;;;;15.88;3.17;;;;;;;17.22;93.90;100936.16;5016114;28;20045;-76
2023/07/30 02:14:47;;;;;;;7.28;2.17;;;;;;;17.23;93.83;100929.94;5016917;28;20275;-77
2023/07/30 02:17:12;;;;;;;15.20;2.63;;;;;;;17.22;93.86;100925.59;5016481;28;20048;-76
2023/07/30 02:19:38;;;;;;;27.27;4.20;;;;;;;17.23;94.09;100929.94;5016624;28;20375;-76
2023/07/30 02:22:04;;;;;;;15.32;3.00;;;;;;;17.22;94.14;100930.88;5016924;28;20053;-76
2023/07/30 02:24:29;;;;;;;13.95;3.30;;;;;;;17.23;94.14;100914.06;5016717;28;20038;-76
2023/07/30 02:26:54;;;;;;;10.13;2.78;;;;;;;17.23;94.14;100922.00;5016986;28;20049;-76
2023/07/30 02:29:20;;;;;;;23.80;3.83;;;;;;;17.23;94.42;100919.34;5016730;28;20101;-76
2023/07/30 02:31:45;;;;;;;15.85;3.50;;;;;;;17.23;94.34;100908.75;5014423;28;20087;-76
2023/07/30 02:34:11;;;;;;;14.05;3.10;;;;;;;17.24;94.46;100913.09;5016675;28;20040;-76
2023/07/30 02:36:36;;;;;;;17.25;3.13;;;;;;;17.24;94.33;100915.72;4979683;28;20396;-76
2023/07/30 02:39:02;;;;;;;9.30;2.97;;;;;;;17.24;94.55;100913.09;4977632;28;20034;-76
2023/07/30 02:41:27;;;;;;;9.52;3.10;;;;;;;17.24;94.78;100918.38;5014118;28;20021;-76
2023/07/30 02:43:53;;;;;;;13.20;3.45;;;;;;;17.24;94.60;100914.91;5001758;28;20050;-76
2023/07/30 02:46:18;;;;;;;12.40;2.83;;;;;;;17.24;94.45;100912.25;4996378;28;20038;-76
2023/07/30 02:48:43;;;;;;;11.13;2.97;;;;;;;17.24;94.43;100913.09;4995339;28;20045;-76
2023/07/30 02:51:09;;;;;;;9.63;2.63;;;;;;;17.25;94.57;100911.31;4996643;28;20073;-76
2023/07/30 02:53:34;;;;;;;13.45;3.00;;;;;;;17.23;94.57;100903.47;4994854;28;20041;-76
2023/07/30 02:56:00;;;;;;;12.73;3.28;;;;;;;17.23;94.70;100908.75;4995941;28;20160;-76
2023/07/30 02:58:25;;;;;;;13.07;3.05;;;;;;;17.24;94.68;100912.25;4994808;28;20019;-75
2023/07/30 03:00:50;;;;;;;9.63;3.00;;;;;;;17.23;94.67;100900.81;5000291;28;20047;-72
2023/07/30 03:03:16;;;;;;;8.43;2.40;;;;;;;17.23;94.73;100903.47;5000023;28;20034;-72
2023/07/30 03:05:42;;;;;;;10.38;2.70;;;;;;;17.23;94.70;100905.28;5012081;28;20076;-72
2023/07/30 03:08:08;;;;;;;14.20;2.95;;;;;;;17.22;94.69;100901.75;5019536;28;20332;-72
2023/07/30 03:10:33;;;;;;;7.35;2.65;;;;;;;17.23;94.73;100910.56;5030278;28;20101;-72
2023/07/30 03:12:58;;;;;;;12.13;3.50;;;;;;;17.22;94.79;100906.22;5039382;28;20041;-72
2023/07/30 03:15:24;;;;;;;11.05;2.40;;;;;;;17.22;94.86;100907.06;5038692;28;20096;-72
2023/07/30 03:17:49;;;;;;;9.65;2.55;;;;;;;17.22;94.88;100914.16;5021563;28;20048;-72
2023/07/30 03:20:15;;;;;;;18.55;3.10;;;;;;;17.23;94.93;100913.22;5039042;28;20041;-72
2023/07/30 03:22:40;;;;;;;9.45;2.58;;;;;;;17.21;94.81;100913.31;5021078;28;20083;-72
2023/07/30 03:25:06;;;;;;;16.50;3.00;;;;;;;17.21;94.93;100912.47;5039220;28;20033;-72
2023/07/30 03:27:31;;;;;;;15.55;2.88;;;;;;;17.22;95.00;100908.88;5038375;28;20347;-72
2023/07/30 03:29:56;;;;;;;11.60;2.63;;;;;;;17.22;95.02;100922.09;5039619;28;20037;-72
2023/07/30 03:32:22;;;;;;;6.90;2.08;;;;;;;17.20;94.96;100911.59;5038865;28;20108;-72
2023/07/30 03:34:47;;;;;;;11.32;2.75;;;;;;;17.21;94.91;100913.31;5029815;28;20275;-72
2023/07/30 03:37:12;;;;;;;15.05;2.92;;;;;;;17.21;94.92;100917.78;5018765;28;20126;-72
2023/07/30 03:39:38;;;;;;;14.95;2.90;;;;;;;17.20;94.99;100908.97;5022350;28;20417;-72
2023/07/30 03:42:03;;;;;;;15.90;3.05;;;;;;;17.20;94.81;100916.91;5038391;28;20029;-72
2023/07/30 03:44:29;;;;;;;11.23;2.97;;;;;;;17.20;94.74;100921.34;5038138;28;20360;-72
2023/07/30 03:46:54;;;;;;;8.90;2.22;;;;;;;17.20;94.78;100918.72;5038930;28;20056;-73
2023/07/30 03:49:20;;;;;;;10.75;2.42;;;;;;;17.18;94.91;100923.25;5020549;28;20550;-73
2023/07/30 03:51:45;;;;;;;5.93;2.00;;;;;;;17.18;94.91;100910.88;5038645;28;20029;-73
2023/07/30 03:54:10;;;;;;;8.07;2.25;;;;;;;17.19;94.67;100924.94;5038330;28;20075;-73
2023/07/30 03:56:36;;;;;;;8.50;2.78;;;;;;;17.18;94.85;100925.91;5038038;28;20070;-73
2023/07/30 03:59:01;;;;;;;10.70;2.70;;;;;;;17.18;94.77;100937.34;5038919;28;20267;-73
2023/07/30 04:01:27;;;;;;;5.72;1.77;;;;;;;17.17;95.01;100929.50;5020163;28;20044;-73
2023/07/30 04:03:53;;;;;;;8.77;2.10;;;;;;;17.17;94.80;100930.38;5027556;28;20101;-72
2023/07/30 04:06:18;;;;;;;9.60;2.33;;;;;;;17.16;94.95;100922.53;5018576;28;20053;-72
2023/07/30 04:08:43;;;;;;;10.35;2.20;;;;;;;17.16;94.92;100930.47;5018730;28;20034;-72
2023/07/30 04:11:09;;;;;;;9.38;2.55;;;;;;;17.16;94.75;100933.09;5018371;28;20068;-72
2023/07/30 04:13:34;;;;;;;5.75;2.13;;;;;;;17.15;94.92;100931.41;5018581;28;20038;-72
2023/07/30 04:16:00;;;;;;;9.95;2.30;;;;;;;17.14;94.64;100932.38;5019051;28;20120;-72
2023/07/30 04:18:25;;;;;;;5.63;2.13;;;;;;;17.12;94.61;100927.16;5018532;28;20032;-72
2023/07/30 04:20:50;;;;;;;5.47;1.88;;;;;;;17.11;94.62;100922.81;5018927;28;20271;-72
2023/07/30 04:23:16;;;;;;;4.72;2.03;;;;;;;17.12;94.49;100936.88;5019239;28;20033;-72
2023/07/30 04:25:42;;;;;;;5.53;2.45;;;;;;;17.11;94.28;100937.84;5018641;28;20054;-72
2023/07/30 04:28:07;;;;;;;6.32;1.98;;;;;;;17.09;94.22;100932.66;5017124;28;20030;-72
2023/07/30 04:30:33;;;;;;;6.95;1.50;;;;;;;17.08;94.01;100934.47;5016645;28;20033;-72
2023/07/30 04:32:58;;;;;;;7.18;1.80;;;;;;;17.07;93.70;100924.81;5019053;28;20092;-72
2023/07/30 04:35:24;;;;;;;5.82;1.73;;;;;;;17.06;93.58;100939.00;5014970;28;20034;-72
2023/07/30 04:37:49;;;;;;;4.40;1.65;;;;;;;17.05;93.42;100939.09;4980078;28;20035;-72
2023/07/30 04:40:14;;;;;;;9.55;1.80;;;;;;;17.04;93.25;100934.75;4997585;28;20340;-72
2023/07/30 04:42:40;;;;;;;6.93;1.85;;;;;;;17.02;93.11;100931.38;5018374;28;20030;-72
2023/07/30 04:45:06;;;;;;;2.65;1.13;;;;;;;17.01;92.79;100938.47;5018831;28;20093;-72
2023/07/30 04:47:31;;;;;;;4.70;1.45;;;;;;;17.00;92.62;100939.41;5018102;28;20038;-72
2023/07/30 04:49:56;;;;;;;7.03;1.90;;;;;;;16.99;92.54;100936.84;5018746;28;20093;-72
2023/07/30 04:52:22;;;;;;;5.88;1.70;;;;;;;16.98;92.18;100945.75;5016492;28;20187;-72
2023/07/30 04:54:47;;;;;;;4.18;1.20;;;;;;;16.97;91.85;100946.69;5019038;28;20080;-72
2023/07/30 04:57:12;;;;;;;5.30;1.80;;;;;;;16.96;91.84;100948.50;5021780;28;20288;-72
2023/07/30 04:59:38;;;;;;;6.85;1.65;;;;;;;16.95;91.63;100951.25;5020487;28;20259;-72
2023/07/30 05:02:03;;;;;;;10.63;2.13;;;;;;;16.94;91.84;100942.47;5022171;28;20097;-72
2023/07/30 05:04:29;;;;;;;9.80;2.28;;;;;;;16.94;92.11;100941.63;5019769;28;20037;-72
2023/07/30 05:06:54;;;;;;;7.35;2.65;;;;;;;16.93;92.24;100947.84;5021630;28;20381;-72
2023/07/30 05:09:19;;;;;;;10.57;2.60;;;;;;;16.93;92.57;100948.69;5021262;28;20041;-72
2023/07/30 05:11:45;;;;;;;8.75;2.58;;;;;;;16.92;92.88;100949.66;5022196;28;20280;-72
2023/07/30 05:14:10;;;;;;;8.48;2.53;;;;;;;16.92;93.11;100951.44;5020438;28;20061;-72
2023/07/30 05:16:36;;;;;;;12.25;3.13;;;;;;;16.92;93.37;100951.44;5021588;28;20350;-72
2023/07/30 05:19:02;;;;;;;10.38;2.35;;;;;;;16.92;93.46;100951.44;5021838;28;20149;-72
2023/07/30 05:21:27;;;;;;;12.00;2.17;;;;;;;16.92;93.59;100954.06;5021437;28;20390;-72
2023/07/30 05:23:52;;;;;;;12.75;3.13;;;;;;;16.92;93.84;100960.22;5021843;28;20037;-72
2023/07/30 05:26:18;;;;;;;9.38;2.25;;;;;;;16.92;93.84;100959.38;5021280;28;20025;-72
2023/07/30 05:28:43;;;;;;;10.02;2.50;;;;;;;16.92;93.76;100960.22;5021300;28;20057;-72
2023/07/30 05:31:09;;;;;;;12.40;2.95;;;;;;;16.92;93.99;100960.22;5021437;28;20346;-72
2023/07/30 05:33:34;;;;;;;14.02;3.33;;;;;;;16.94;94.21;100960.13;5021420;28;20044;-72
2023/07/30 05:36:00;;;;;;;8.55;1.75;;;;;;;16.93;94.24;100955.78;5015697;28;20333;-72
2023/07/30 05:38:25;;;;;;;12.13;3.00;;;;;;;16.93;94.37;100956.63;4981634;28;20031;-72
2023/07/30 05:40:50;;;;;;;13.75;2.95;;;;;;;16.94;94.40;100958.34;5009505;28;20103;-72
2023/07/30 05:43:16;;;;;;;15.60;2.47;;;;;;;16.94;94.44;100950.41;5020975;28;20038;-72
2023/07/30 05:45:41;;;;;;;5.60;1.90;;;;;;;16.95;94.63;100957.38;5021120;28;20288;-72
2023/07/30 05:48:07;;;;;;;8.45;2.33;;;;;;;16.94;94.60;100955.69;5021195;28;20072;-72
2023/07/30 05:50:32;;;;;;;12.73;3.03;;;;;;;16.94;94.77;100952.19;5021068;28;20045;-72
2023/07/30 05:52:57;;;;;;;10.90;2.33;;;;;;;16.95;94.80;100949.44;5019795;28;20057;-72
2023/07/30 05:55:23;;;;;;;8.95;2.28;;;;;;;16.95;94.82;100949.44;5019710;28;20022;-72
2023/07/30 05:57:48;;;;;;;11.25;2.70;;;;;;;16.96;95.02;100955.59;5020213;28;20053;-72
2023/07/30 06:00:13;;;;;;;9.98;2.30;;;;;;;16.96;94.78;100951.16;5019506;28;20037;-72
2023/07/30 06:02:39;;;;;;;7.25;2.17;;;;;;;16.97;94.93;100946.69;5019545;28;20339;-72
2023/07/30 06:05:04;;;;;;;22.58;3.58;;;;;;;16.97;94.92;100942.28;5019741;28;20092;-72
2023/07/30 06:07:30;;;;;;;10.15;2.05;;;;;;;16.97;95.12;100952.84;5020312;28;20064;-72
2023/07/30 06:09:55;;;;;;;11.38;2.70;;;;;;;16.98;95.21;100945.75;5020727;28;20038;-72
2023/07/30 06:12:21;;;;;;;10.55;2.42;;;;;;;16.98;94.93;100941.31;5020527;28;20033;-72
2023/07/30 06:14:46;;;;;;;10.98;2.53;;;;;;;17.00;94.68;100943.84;5020890;28;20105;-72
2023/07/30 06:17:11;;;;;;;13.70;2.97;;;;;;;16.99;94.82;100944.78;5020671;28;20038;-72
2023/07/30 06:19:38;;;;;;;10.23;2.65;;;;;;;16.98;94.73;100941.31;5021276;28;20041;-72
2023/07/30 06:22:03;;;;;;;13.82;3.15;;;;;;;16.99;94.47;100942.13;5020621;28;20038;-72
2023/07/30 06:24:29;;;;;;;12.00;2.60;;;;;;;16.98;94.48;100956.34;5020302;28;20317;-72
2023/07/30 06:26:54;;;;;;;9.55;2.38;;;;;;;16.98;94.20;100959.81;5021013;28;20034;-73
2023/07/30 06:29:19;;;;;;;9.30;2.50;;;;;;;16.98;94.15;100949.25;5021099;28;20046;-72
2023/07/30 06:31:45;;;;;;;9.30;2.40;;;;;;;16.98;94.13;100948.41;5021161;28;20098;-72
2023/07/30 06:34:10;;;;;;;10.35;2.17;;;;;;;16.99;94.19;100958.00;5020647;28;20056;-72
2023/07/30 06:36:35;;;;;;;9.07;2.47;;;;;;;16.99;94.31;100956.25;5020170;28;20267;-72
2023/07/30 06:39:01;;;;;;;7.75;1.77;;;;;;;16.99;94.33;100953.59;5020600;28;20080;-72
2023/07/30 06:41:26;;;;;;;10.88;3.03;;;;;;;17.00;94.25;100965.84;5019978;28;20084;-72
2023/07/30 06:43:52;;;;;;;11.27;2.50;;;;;;;17.01;94.01;100959.63;5018751;28;20426;-72
2023/07/30 06:46:17;;;;;;;8.20;2.08;;;;;;;17.01;94.31;100970.22;5000848;28;20034;-72
2023/07/30 06:48:42;;;;;;;14.02;2.97;;;;;;;17.03;94.03;100970.13;5001033;28;20120;-72
2023/07/30 06:51:10;;;;;;;11.15;2.45;;;;;;;17.03;94.13;100960.38;5000288;28;20038;-72
2023/07/30 06:53:35;;;;;;;13.77;2.42;;;;;;;17.04;93.90;100969.16;5000160;28;20030;-72
2023/07/30 06:56:00;;;;;;;12.15;2.53;;;;;;;17.05;94.18;100971.69;5000809;28;20098;-72
2023/07/30 06:58:26;;;;;;;11.38;2.58;;;;;;;17.05;94.11;100974.34;4999843;28;20030;-72
2023/07/30 07:00:51;;;;;;;15.05;3.42;;;;;;;17.04;94.05;100967.34;5001176;28;20038;-72
2023/07/30 07:03:17;;;;;;;10.57;2.33;;;;;;;17.03;94.21;100960.38;5000112;28;20034;-72
2023/07/30 07:05:42;;;;;;;17.55;3.88;;;;;;;17.03;94.23;100965.66;5016096;28;20057;-72
2023/07/30 07:08:08;;;;;;;12.98;2.72;;;;;;;17.03;94.30;100968.31;5020463;28;20030;-72
2023/07/30 07:10:33;;;;;;;14.32;3.42;;;;;;;17.04;94.12;100963.84;5019974;28;20482;-72
2023/07/30 07:12:58;;;;;;;18.05;4.40;;;;;;;17.02;94.30;100966.59;5019918;28;20328;-72
2023/07/30 07:15:24;;;;;;;7.60;3.03;;;;;;;17.02;94.10;100961.31;5019565;28;20060;-72
2023/07/30 07:17:49;;;;;;;12.73;2.95;;;;;;;17.03;94.14;100965.66;5019239;28;20037;-72
2023/07/30 07:20:14;;;;;;;14.68;3.53;;;;;;;17.03;94.38;100973.59;5019757;28;20259;-72
2023/07/30 07:22:40;;;;;;;10.60;3.15;;;;;;;17.03;94.66;100978.91;5019175;28;20037;-72
2023/07/30 07:25:05;;;;;;;11.68;3.10;;;;;;;17.04;94.88;100987.66;5020096;28;20041;-72
2023/07/30 07:27:31;;;;;;;19.55;3.40;;;;;;;17.03;94.90;100976.25;5019442;28;20463;-72
2023/07/30 07:29:56;;;;;;;9.25;2.40;;;;;;;17.03;95.05;100981.53;5020206;28;20064;-72
2023/07/30 07:32:22;;;;;;;14.60;3.03;;;;;;;17.04;94.81;100995.59;5019517;28;20051;-72
2023/07/30 07:34:48;;;;;;;11.60;3.25;;;;;;;17.04;94.61;101006.19;5019340;28;20580;-72
2023/07/30 07:37:15;;;;;;;10.63;2.42;;;;;;;17.03;94.62;101002.69;5012890;28;20060;-72
2023/07/30 07:39:41;;;;;;;8.60;2.38;;;;;;;17.04;94.52;100998.25;5003418;28;20030;-72
2023/07/30 07:42:07;;;;;;;9.75;2.33;;;;;;;17.05;94.68;101002.59;5018453;28;20038;-72
2023/07/30 07:44:32;;;;;;;8.57;2.38;;;;;;;17.05;94.45;101007.91;5017774;28;20084;-72
2023/07/30 07:46:57;;;;;;;4.45;1.73;;;;;;;17.06;94.04;101009.59;5004092;28;20038;-72
2023/07/30 07:49:23;;;;;;;5.70;1.77;;;;;;;17.07;93.21;101011.28;4977106;28;20329;-72
2023/07/30 07:51:48;;;;;;;7.78;1.77;;;;;;;17.09;93.03;101012.03;4978528;28;20365;-72
2023/07/30 07:54:14;;;;;;;12.80;2.17;;;;;;;17.08;92.32;101011.19;4977066;28;20038;-72
2023/07/30 07:56:39;;;;;;;5.53;1.40;;;;;;;17.10;91.92;101007.59;4975493;28;20412;-72
2023/07/30 07:59:04;;;;;;;12.25;2.47;;;;;;;17.10;91.58;101023.47;4975978;28;20023;-73
2023/07/30 08:01:30;;;;;;;7.53;1.98;;;;;;;17.11;91.45;101022.53;4976009;28;20038;-72
2023/07/30 08:03:55;;;;;;;5.55;1.58;;;;;;;17.12;91.16;101024.19;4984902;28;20367;-73
2023/07/30 08:06:20;;;;;;;6.32;1.45;;;;;;;17.12;90.86;101029.50;5013904;28;20367;-72
2023/07/30 08:08:46;;;;;;;6.57;1.70;;;;;;;17.11;89.99;101031.31;4987358;28;20042;-73
2023/07/30 08:11:11;;;;;;;7.35;1.52;;;;;;;17.11;89.71;101025.16;5007588;28;20037;-72
2023/07/30 08:13:37;;;;;;;9.88;2.53;;;;;;;17.10;88.62;101026.09;5014990;28;20046;-72
2023/07/30 08:16:02;;;;;;;6.93;1.95;;;;;;;17.09;89.01;101025.28;5014810;28;20056;-72
2023/07/30 08:18:28;;;;;;;9.20;2.13;;;;;;;17.10;88.96;101029.63;5014987;28;20021;-72
2023/07/30 08:20:53;;;;;;;4.35;1.15;;;;;;;17.08;88.74;101029.72;5016004;28;20430;-73
2023/07/30 08:23:19;;;;;;;9.93;1.88;;;;;;;17.07;88.46;101024.53;5005792;28;20034;-72
2023/07/30 08:25:44;;;;;;;8.75;1.55;;;;;;;17.07;88.46;101027.16;4997482;28;20034;-72
2023/07/30 08:28:10;;;;;;;6.25;1.80;;;;;;;17.07;88.24;101027.16;4997010;28;20038;-72
2023/07/30 08:30:35;;;;;;;4.53;1.60;;;;;;;17.05;88.14;101027.25;4998770;28;20030;-72
2023/07/30 08:33:00;;;;;;;7.85;2.28;;;;;;;17.06;87.91;101033.41;5001604;28;20400;-72
2023/07/30 08:35:26;;;;;;;4.10;1.40;;;;;;;17.04;88.01;101032.66;4999796;28;20057;-72
2023/07/30 08:37:52;;;;;;;5.53;1.70;;;;;;;17.03;87.93;101023.03;5000734;28;20022;-72
2023/07/30 08:40:17;;;;;;;8.73;1.95;;;;;;;17.03;87.74;101023.88;5008133;28;21243;-72
2023/07/30 08:42:43;;;;;;;12.82;2.40;;;;;;;17.03;87.91;101026.50;5019379;28;20374;-72
2023/07/30 08:45:09;;;;;;;9.10;1.98;;;;;;;17.02;87.79;101022.16;5002880;28;20058;-73
2023/07/30 08:47:40;;;;;;;6.80;2.00;;;;;;;17.01;87.70;101028.41;5000322;28;20180;-73
2023/07/30 08:50:05;;;;;;;5.43;1.42;;;;;;;17.02;87.95;101026.59;5001813;28;20069;-72
2023/07/30 08:52:32;;;;;;;3.65;1.52;;;;;;;17.02;88.14;101035.38;5000171;28;20038;-72
2023/07/30 08:55:01;;;;;;;5.50;1.30;;;;;;;17.02;88.26;101032.75;5000012;28;20042;-73
2023/07/30 08:57:27;;;;;;;;;;;;;;;17.02;88.40;101032.75;5000919;28;20041;-72
2023/07/30 09:00:05;;;;;;;13.60;2.50;;;;;;;17.03;88.51;101036.25;5012614;28;19913;-72
2023/07/30 09:02:37;;;;;;;9.35;2.13;;;;;;;17.05;88.82;101043.13;5019188;28;20038;-72
2023/07/30 09:05:04;;;;;;;6.72;1.80;;;;;;;17.07;88.75;101040.41;5011857;28;20054;-72
2023/07/30 09:07:29;;;;;;;7.43;1.60;;;;;;;17.10;88.57;101041.97;5017469;28;20033;-72
2023/07/30 09:09:55;;;;;;;6.35;1.45;;;;;;;17.12;88.76;101040.06;5023712;28;20030;-72
2023/07/30 09:12:26;;;;;;;7.32;2.15;;;;;;;17.16;88.60;101047.72;5039068;28;20033;-71
2023/07/30 09:14:51;;;;;;;7.63;1.90;;;;;;;17.18;88.06;101040.53;5019467;28;20042;-72
2023/07/30 09:17:18;;;;;;;8.50;1.92;;;;;;;17.21;87.87;101047.44;5019512;28;20068;-72
2023/07/30 09:19:43;;;;;;;8.98;1.40;;;;;;;17.25;87.86;101056.88;5019242;28;20030;-72
2023/07/30 09:22:09;;;;;;;5.60;1.92;;;;;;;17.30;87.69;101053.91;5019122;28;20057;-72
2023/07/30 09:24:34;;;;;;;9.52;1.98;;;;;;;17.33;87.56;101054.56;5018238;28;20041;-72
2023/07/30 09:27:03;;;;;;;7.72;1.70;;;;;;;17.36;87.09;101057.03;5019201;28;20052;-73
2023/07/30 09:29:28;;;;;;;5.07;1.48;;;;;;;17.40;86.53;101061.16;5017677;28;20033;-72
2023/07/30 09:31:55;;;;;;;7.13;1.52;;;;;;;17.42;86.25;101069.84;5019065;28;20025;-72
2023/07/30 09:34:23;;;;;;;8.80;1.63;;;;;;;17.44;85.83;101052.09;5017518;28;20244;-72
2023/07/30 09:36:55;;;;;;;5.20;1.50;;;;;;;17.46;85.76;101065.19;5019111;28;20056;-72
2023/07/30 09:39:22;;;;;;;7.53;1.80;;;;;;;17.47;85.41;101077.50;5019374;28;20076;-73
2023/07/30 09:41:50;;;;;;;6.32;1.85;;;;;;;17.46;85.71;101084.59;5038254;28;20078;-72
2023/07/30 09:44:17;;;;;;;8.00;2.30;;;;;;;17.47;85.33;101085.44;5011629;28;20042;-73
2023/07/30 09:46:44;;;;;;;8.23;1.75;;;;;;;17.49;85.47;101082.69;5015259;28;20276;-73
2023/07/30 09:49:10;;;;;;;9.82;2.30;;;;;;;17.50;85.56;101093.19;5017291;28;20033;-73
2023/07/30 09:51:38;;;;;;;8.05;1.67;;;;;;;17.53;85.72;101084.19;5018180;28;20037;-73
2023/07/30 09:54:03;;;;;;;3.83;1.40;;;;;;;17.55;85.95;101083.13;5018222;28;20069;-73
2023/07/30 09:56:29;;;;;;;11.10;2.05;;;;;;;17.57;85.58;101090.97;5018118;28;20034;-72
2023/07/30 09:58:54;;;;;;;6.47;1.55;;;;;;;17.59;85.41;101097.00;5017418;28;20034;-73
2023/07/30 10:01:25;;;;;;;6.90;1.70;;;;;;;17.60;85.15;101099.56;5012845;28;20122;-73
2023/07/30 10:03:50;;;;;;;7.68;1.45;;;;;;;17.62;84.91;101102.94;5015576;28;20040;-73
2023/07/30 10:06:16;;;;;;;7.57;1.63;;;;;;;17.63;85.01;101098.53;5017334;28;20050;-73
2023/07/30 10:08:44;;;;;;;5.47;1.48;;;;;;;17.65;84.96;101099.25;5016230;28;20364;-73
2023/07/30 10:11:10;;;;;;;9.82;1.40;;;;;;;17.68;84.57;101106.16;5008439;28;20030;-72
2023/07/30 10:13:37;;;;;;;8.13;1.60;;;;;;;17.69;84.50;101111.34;5014929;28;20049;-73
2023/07/30 10:16:02;;;;;;;7.47;1.45;;;;;;;17.72;84.19;101105.84;5016372;28;20032;-73
2023/07/30 10:18:42;;;;;;;4.15;1.67;;;;;;;17.75;83.84;101102.13;5015767;28;20093;-73
2023/07/30 10:21:22;;;;;;;5.20;1.30;;;;;;;17.77;83.66;101103.75;5016998;28;20037;-72
2023/07/30 10:24:03;;;;;;;8.00;1.55;;;;;;;17.77;83.35;101108.19;5016975;28;20048;-73
2023/07/30 10:26:30;;;;;;;4.30;1.50;;;;;;;17.77;83.22;101118.78;5001411;28;20038;-73
2023/07/30 10:29:15;;;;;;;5.30;1.60;;;;;;;17.76;82.43;101125.88;5015378;28;20038;-73
2023/07/30 10:31:42;;;;;;;6.43;1.60;;;;;;;17.76;82.70;101127.69;5017290;28;20212;-73
2023/07/30 10:34:10;;;;;;;5.10;1.55;;;;;;;17.77;83.01;101124.94;5015805;28;20248;-73
2023/07/30 10:36:44;;;;;;;5.68;1.48;;;;;;;17.77;83.17;101124.94;5015662;28;20251;-73
2023/07/30 10:39:16;;;;;;;4.90;1.42;;;;;;;17.78;83.29;101128.44;5015943;28;20037;-73
2023/07/30 10:41:46;;;;;;;7.68;1.40;;;;;;;17.79;83.40;101130.09;5022639;28;20185;-72
2023/07/30 10:44:43;;;;;;;8.80;1.70;;;;;;;17.81;83.33;101134.38;5015830;28;20247;-72
2023/07/30 10:47:08;;;;;;;7.32;1.40;;;;;;;17.81;83.26;101141.47;5015285;28;20296;-73
2023/07/30 10:49:38;;;;;;;8.35;1.38;;;;;;;17.82;82.66;101140.50;5015179;28;20044;-73
2023/07/30 10:52:04;;;;;;;6.25;1.27;;;;;;;17.82;82.59;101145.81;5012317;28;20048;-73
2023/07/30 10:54:36;;;;;;;6.47;1.50;;;;;;;17.85;82.71;101137.69;5014625;28;20057;-73
2023/07/30 10:57:05;;;;;;;7.38;2.17;;;;;;;17.87;82.23;101135.78;5015955;28;20037;-73
2023/07/30 10:59:37;;;;;;;9.98;1.85;;;;;;;17.91;82.27;101145.22;5015193;28;20069;-72
2023/07/30 11:02:03;;;;;;;4.28;1.92;;;;;;;17.93;82.15;101129.22;5016200;28;20033;-72
2023/07/30 11:04:33;;;;;;;6.15;1.35;;;;;;;17.98;82.48;101143.03;5015070;28;20108;-73
2023/07/30 11:06:59;;;;;;;5.10;1.90;;;;;;;18.00;82.88;101141.97;5008420;28;20074;-73
2023/07/30 11:09:26;;;;;;;4.78;1.30;;;;;;;18.04;82.61;101155.84;4999849;28;20041;-73
2023/07/30 11:11:53;;;;;;;5.38;1.83;;;;;;;18.06;82.29;101143.34;4999993;28;20348;-72
2023/07/30 11:14:20;;;;;;;4.85;1.08;;;;;;;18.07;81.74;101149.53;4999428;28;20045;-73
2023/07/30 11:17:00;;;;;;;5.20;1.50;;;;;;;18.08;81.47;101159.16;4996720;28;20368;-73
2023/07/30 11:19:26;;;;;;;11.00;1.90;;;;;;;18.08;81.52;101161.81;4998055;28;20026;-74
2023/07/30 11:21:56;;;;;;;4.57;1.65;;;;;;;18.08;81.68;101172.41;4996535;28;20097;-74
2023/07/30 11:24:24;;;;;;;2.17;1.08;;;;;;;18.08;81.64;101151.19;4994983;28;20033;-74